sensor_id;sensor_type;location;lat;lon;timestamp;P1;durP1;ratioP1;P2;durP2;ratioP2
29568;SDS011;16501;51.462;14.346;2024-03-02T00:02:12;27.15;;;13.75;;
29568;SDS011;16501;51.462;14.346;2024-03-02T00:04:39;44.05;;;19.77;;
29568;SDS011;16501;51.462;14.346;2024-03-02T00:07:06;45.28;;;19.65;;
29568;SDS011;16501;51.462;14.346;2024-03-02T00:09:31;43.28;;;20.83;;
29568;SDS011;16501;51.462;14.346;2024-03-02T00:11:58;29.80;;;14.75;;
29568;SDS011;16501;51.462;14.346;2024-03-02T00:14:25;41.88;;;19.42;;
29568;SDS011;16501;51.462;14.346;2024-03-02T00:16:50;32.25;;;17.02;;
29568;SDS011;16501;51.462;14.346;2024-03-02T00:19:16;38.67;;;19.55;;
29568;SDS011;16501;51.462;14.346;2024-03-02T00:21:44;25.45;;;15.50;;
29568;SDS011;16501;51.462;14.346;2024-03-02T00:24:20;18.27;;;12.30;;
29568;SDS011;16501;51.462;14.346;2024-03-02T00:26:50;16.27;;;11.98;;
29568;SDS011;16501;51.462;14.346;2024-03-02T00:29:16;18.15;;;11.50;;
29568;SDS011;16501;51.462;14.346;2024-03-02T00:31:44;17.23;;;12.07;;
29568;SDS011;16501;51.462;14.346;2024-03-02T00:34:09;20.98;;;12.07;;
29568;SDS011;16501;51.462;14.346;2024-03-02T00:36:38;21.23;;;12.38;;
29568;SDS011;16501;51.462;14.346;2024-03-02T00:39:05;17.83;;;11.98;;
29568;SDS011;16501;51.462;14.346;2024-03-02T00:41:32;17.10;;;11.77;;
29568;SDS011;16501;51.462;14.346;2024-03-02T00:44:04;18.75;;;12.15;;
29568;SDS011;16501;51.462;14.346;2024-03-02T00:49:02;18.83;;;11.55;;
29568;SDS011;16501;51.462;14.346;2024-03-02T00:51:31;18.92;;;11.55;;
29568;SDS011;16501;51.462;14.346;2024-03-02T00:54:01;14.77;;;11.20;;
29568;SDS011;16501;51.462;14.346;2024-03-02T00:56:29;18.90;;;11.55;;
29568;SDS011;16501;51.462;14.346;2024-03-02T00:58:55;15.13;;;11.73;;
29568;SDS011;16501;51.462;14.346;2024-03-02T01:01:20;15.82;;;11.30;;
29568;SDS011;16501;51.462;14.346;2024-03-02T01:03:46;20.05;;;12.32;;
29568;SDS011;16501;51.462;14.346;2024-03-02T01:06:15;20.00;;;11.65;;
29568;SDS011;16501;51.462;14.346;2024-03-02T01:08:41;18.80;;;11.77;;
29568;SDS011;16501;51.462;14.346;2024-03-02T01:11:06;19.30;;;13.00;;
29568;SDS011;16501;51.462;14.346;2024-03-02T01:13:32;16.23;;;11.63;;
29568;SDS011;16501;51.462;14.346;2024-03-02T01:15:57;14.75;;;11.23;;
29568;SDS011;16501;51.462;14.346;2024-03-02T01:18:23;18.55;;;12.75;;
29568;SDS011;16501;51.462;14.346;2024-03-02T01:20:49;20.77;;;13.90;;
29568;SDS011;16501;51.462;14.346;2024-03-02T01:23:16;18.65;;;12.48;;
29568;SDS011;16501;51.462;14.346;2024-03-02T01:25:45;15.23;;;11.40;;
29568;SDS011;16501;51.462;14.346;2024-03-02T01:28:13;17.88;;;11.50;;
29568;SDS011;16501;51.462;14.346;2024-03-02T01:30:39;16.63;;;11.50;;
29568;SDS011;16501;51.462;14.346;2024-03-02T01:33:05;17.25;;;11.88;;
29568;SDS011;16501;51.462;14.346;2024-03-02T01:35:36;17.90;;;12.55;;
29568;SDS011;16501;51.462;14.346;2024-03-02T01:38:02;15.68;;;12.13;;
29568;SDS011;16501;51.462;14.346;2024-03-02T01:40:29;17.38;;;11.43;;
29568;SDS011;16501;51.462;14.346;2024-03-02T01:42:55;17.42;;;12.50;;
29568;SDS011;16501;51.462;14.346;2024-03-02T01:45:20;24.48;;;12.65;;
29568;SDS011;16501;51.462;14.346;2024-03-02T01:47:46;19.67;;;12.30;;
29568;SDS011;16501;51.462;14.346;2024-03-02T01:50:12;16.38;;;11.55;;
29568;SDS011;16501;51.462;14.346;2024-03-02T01:52:38;16.40;;;11.52;;
29568;SDS011;16501;51.462;14.346;2024-03-02T01:55:04;18.55;;;12.57;;
29568;SDS011;16501;51.462;14.346;2024-03-02T01:57:31;19.52;;;11.98;;
29568;SDS011;16501;51.462;14.346;2024-03-02T01:59:56;17.25;;;12.88;;
29568;SDS011;16501;51.462;14.346;2024-03-02T02:02:22;21.85;;;12.20;;
29568;SDS011;16501;51.462;14.346;2024-03-02T02:04:47;18.50;;;12.30;;
29568;SDS011;16501;51.462;14.346;2024-03-02T02:07:12;16.77;;;12.23;;
29568;SDS011;16501;51.462;14.346;2024-03-02T02:09:39;17.63;;;11.77;;
29568;SDS011;16501;51.462;14.346;2024-03-02T02:12:07;17.88;;;12.60;;
29568;SDS011;16501;51.462;14.346;2024-03-02T02:14:34;16.27;;;11.68;;
29568;SDS011;16501;51.462;14.346;2024-03-02T02:16:59;17.92;;;11.32;;
29568;SDS011;16501;51.462;14.346;2024-03-02T02:19:25;16.02;;;11.80;;
29568;SDS011;16501;51.462;14.346;2024-03-02T02:21:50;19.27;;;12.18;;
29568;SDS011;16501;51.462;14.346;2024-03-02T02:24:15;20.13;;;12.07;;
29568;SDS011;16501;51.462;14.346;2024-03-02T02:26:41;19.58;;;12.63;;
29568;SDS011;16501;51.462;14.346;2024-03-02T02:29:06;19.52;;;12.20;;
29568;SDS011;16501;51.462;14.346;2024-03-02T02:31:38;23.75;;;13.30;;
29568;SDS011;16501;51.462;14.346;2024-03-02T02:34:04;17.48;;;12.20;;
29568;SDS011;16501;51.462;14.346;2024-03-02T02:36:29;17.88;;;12.35;;
29568;SDS011;16501;51.462;14.346;2024-03-02T02:38:55;16.10;;;12.23;;
29568;SDS011;16501;51.462;14.346;2024-03-02T02:41:21;21.58;;;12.48;;
29568;SDS011;16501;51.462;14.346;2024-03-02T02:43:46;21.52;;;12.88;;
29568;SDS011;16501;51.462;14.346;2024-03-02T02:46:12;16.17;;;12.05;;
29568;SDS011;16501;51.462;14.346;2024-03-02T02:48:37;17.55;;;13.35;;
29568;SDS011;16501;51.462;14.346;2024-03-02T02:51:03;20.17;;;13.35;;
29568;SDS011;16501;51.462;14.346;2024-03-02T02:53:29;17.60;;;12.23;;
29568;SDS011;16501;51.462;14.346;2024-03-02T02:55:54;16.90;;;12.50;;
29568;SDS011;16501;51.462;14.346;2024-03-02T02:58:19;20.63;;;13.25;;
29568;SDS011;16501;51.462;14.346;2024-03-02T03:00:45;20.23;;;12.32;;
29568;SDS011;16501;51.462;14.346;2024-03-02T03:03:10;17.40;;;11.82;;
29568;SDS011;16501;51.462;14.346;2024-03-02T03:05:35;19.23;;;13.27;;
29568;SDS011;16501;51.462;14.346;2024-03-02T03:08:01;21.52;;;12.32;;
29568;SDS011;16501;51.462;14.346;2024-03-02T03:10:26;20.90;;;13.77;;
29568;SDS011;16501;51.462;14.346;2024-03-02T03:12:52;18.83;;;13.30;;
29568;SDS011;16501;51.462;14.346;2024-03-02T03:15:18;18.52;;;12.57;;
29568;SDS011;16501;51.462;14.346;2024-03-02T03:17:43;16.98;;;12.70;;
29568;SDS011;16501;51.462;14.346;2024-03-02T03:20:12;19.55;;;12.95;;
29568;SDS011;16501;51.462;14.346;2024-03-02T03:22:38;20.13;;;12.35;;
29568;SDS011;16501;51.462;14.346;2024-03-02T03:25:04;20.92;;;13.45;;
29568;SDS011;16501;51.462;14.346;2024-03-02T03:27:30;22.80;;;13.48;;
29568;SDS011;16501;51.462;14.346;2024-03-02T03:29:57;19.60;;;13.38;;
29568;SDS011;16501;51.462;14.346;2024-03-02T03:32:22;17.88;;;11.90;;
29568;SDS011;16501;51.462;14.346;2024-03-02T03:34:48;20.77;;;12.82;;
29568;SDS011;16501;51.462;14.346;2024-03-02T03:37:13;21.27;;;13.90;;
29568;SDS011;16501;51.462;14.346;2024-03-02T03:39:39;20.80;;;14.20;;
29568;SDS011;16501;51.462;14.346;2024-03-02T03:42:05;20.10;;;14.20;;
29568;SDS011;16501;51.462;14.346;2024-03-02T03:44:31;17.23;;;13.13;;
29568;SDS011;16501;51.462;14.346;2024-03-02T03:46:56;19.80;;;13.63;;
29568;SDS011;16501;51.462;14.346;2024-03-02T03:49:22;20.05;;;13.50;;
29568;SDS011;16501;51.462;14.346;2024-03-02T03:51:47;22.58;;;14.20;;
29568;SDS011;16501;51.462;14.346;2024-03-02T03:54:12;21.10;;;13.50;;
29568;SDS011;16501;51.462;14.346;2024-03-02T03:56:38;19.20;;;14.02;;
29568;SDS011;16501;51.462;14.346;2024-03-02T03:59:03;22.20;;;14.30;;
29568;SDS011;16501;51.462;14.346;2024-03-02T04:01:29;19.17;;;13.05;;
29568;SDS011;16501;51.462;14.346;2024-03-02T04:03:55;21.38;;;14.35;;
29568;SDS011;16501;51.462;14.346;2024-03-02T04:06:21;20.23;;;13.68;;
29568;SDS011;16501;51.462;14.346;2024-03-02T04:08:46;25.40;;;15.80;;
29568;SDS011;16501;51.462;14.346;2024-03-02T04:11:12;22.17;;;14.38;;
29568;SDS011;16501;51.462;14.346;2024-03-02T04:13:37;19.98;;;13.30;;
29568;SDS011;16501;51.462;14.346;2024-03-02T04:16:03;19.55;;;12.93;;
29568;SDS011;16501;51.462;14.346;2024-03-02T04:18:30;19.50;;;14.50;;
29568;SDS011;16501;51.462;14.346;2024-03-02T04:20:56;19.30;;;13.82;;
29568;SDS011;16501;51.462;14.346;2024-03-02T04:23:24;19.88;;;12.95;;
29568;SDS011;16501;51.462;14.346;2024-03-02T04:25:50;19.10;;;12.60;;
29568;SDS011;16501;51.462;14.346;2024-03-02T04:28:15;16.55;;;11.63;;
29568;SDS011;16501;51.462;14.346;2024-03-02T04:30:40;17.95;;;11.50;;
29568;SDS011;16501;51.462;14.346;2024-03-02T04:33:06;16.70;;;11.73;;
29568;SDS011;16501;51.462;14.346;2024-03-02T04:35:34;15.30;;;11.57;;
29568;SDS011;16501;51.462;14.346;2024-03-02T04:38:00;18.30;;;11.82;;
29568;SDS011;16501;51.462;14.346;2024-03-02T04:40:25;14.70;;;11.13;;
29568;SDS011;16501;51.462;14.346;2024-03-02T04:42:51;19.42;;;12.52;;
29568;SDS011;16501;51.462;14.346;2024-03-02T04:45:16;17.90;;;11.68;;
29568;SDS011;16501;51.462;14.346;2024-03-02T04:47:42;17.60;;;11.90;;
29568;SDS011;16501;51.462;14.346;2024-03-02T04:50:07;18.13;;;13.02;;
29568;SDS011;16501;51.462;14.346;2024-03-02T04:52:33;19.88;;;12.40;;
29568;SDS011;16501;51.462;14.346;2024-03-02T04:54:58;19.20;;;13.35;;
29568;SDS011;16501;51.462;14.346;2024-03-02T04:57:50;20.17;;;12.45;;
29568;SDS011;16501;51.462;14.346;2024-03-02T05:00:16;16.02;;;11.60;;
29568;SDS011;16501;51.462;14.346;2024-03-02T05:02:42;16.40;;;11.05;;
29568;SDS011;16501;51.462;14.346;2024-03-02T05:05:07;16.65;;;11.93;;
29568;SDS011;16501;51.462;14.346;2024-03-02T05:07:33;19.35;;;10.95;;
29568;SDS011;16501;51.462;14.346;2024-03-02T05:09:58;16.33;;;11.63;;
29568;SDS011;16501;51.462;14.346;2024-03-02T05:12:24;16.02;;;11.77;;
29568;SDS011;16501;51.462;14.346;2024-03-02T05:15:11;14.73;;;10.77;;
29568;SDS011;16501;51.462;14.346;2024-03-02T05:17:38;22.30;;;11.18;;
29568;SDS011;16501;51.462;14.346;2024-03-02T05:20:07;18.52;;;12.63;;
29568;SDS011;16501;51.462;14.346;2024-03-02T05:22:33;21.13;;;12.90;;
29568;SDS011;16501;51.462;14.346;2024-03-02T05:24:59;18.95;;;12.77;;
29568;SDS011;16501;51.462;14.346;2024-03-02T05:27:25;17.45;;;12.63;;
29568;SDS011;16501;51.462;14.346;2024-03-02T05:29:51;17.63;;;11.65;;
29568;SDS011;16501;51.462;14.346;2024-03-02T05:32:17;17.52;;;11.77;;
29568;SDS011;16501;51.462;14.346;2024-03-02T05:34:42;20.90;;;13.63;;
29568;SDS011;16501;51.462;14.346;2024-03-02T05:37:07;18.55;;;12.75;;
29568;SDS011;16501;51.462;14.346;2024-03-02T05:39:33;18.13;;;12.63;;
29568;SDS011;16501;51.462;14.346;2024-03-02T05:41:58;19.67;;;14.52;;
29568;SDS011;16501;51.462;14.346;2024-03-02T05:44:24;16.17;;;12.40;;
29568;SDS011;16501;51.462;14.346;2024-03-02T05:46:49;16.80;;;12.43;;
29568;SDS011;16501;51.462;14.346;2024-03-02T05:49:15;19.98;;;13.13;;
29568;SDS011;16501;51.462;14.346;2024-03-02T05:51:40;19.45;;;12.95;;
29568;SDS011;16501;51.462;14.346;2024-03-02T05:54:06;23.67;;;13.40;;
29568;SDS011;16501;51.462;14.346;2024-03-02T05:56:32;19.23;;;13.15;;
29568;SDS011;16501;51.462;14.346;2024-03-02T05:58:57;27.33;;;16.42;;
29568;SDS011;16501;51.462;14.346;2024-03-02T06:01:41;21.48;;;14.45;;
29568;SDS011;16501;51.462;14.346;2024-03-02T06:04:08;23.17;;;16.23;;
29568;SDS011;16501;51.462;14.346;2024-03-02T06:06:36;30.55;;;21.48;;
29568;SDS011;16501;51.462;14.346;2024-03-02T06:09:02;27.50;;;18.83;;
29568;SDS011;16501;51.462;14.346;2024-03-02T06:11:37;37.30;;;21.48;;
29568;SDS011;16501;51.462;14.346;2024-03-02T06:14:03;35.67;;;20.25;;
29568;SDS011;16501;51.462;14.346;2024-03-02T06:16:31;39.42;;;20.48;;
29568;SDS011;16501;51.462;14.346;2024-03-02T06:18:57;41.40;;;22.88;;
29568;SDS011;16501;51.462;14.346;2024-03-02T06:21:23;37.90;;;23.40;;
29568;SDS011;16501;51.462;14.346;2024-03-02T06:23:49;38.45;;;23.48;;
29568;SDS011;16501;51.462;14.346;2024-03-02T06:26:14;43.80;;;24.73;;
29568;SDS011;16501;51.462;14.346;2024-03-02T06:28:40;39.80;;;23.48;;
29568;SDS011;16501;51.462;14.346;2024-03-02T06:31:05;49.30;;;26.65;;
29568;SDS011;16501;51.462;14.346;2024-03-02T06:33:31;52.83;;;28.35;;
29568;SDS011;16501;51.462;14.346;2024-03-02T06:35:56;66.00;;;33.28;;
29568;SDS011;16501;51.462;14.346;2024-03-02T06:38:21;64.22;;;33.15;;
29568;SDS011;16501;51.462;14.346;2024-03-02T06:40:47;70.57;;;36.38;;
29568;SDS011;16501;51.462;14.346;2024-03-02T06:43:12;64.22;;;35.60;;
29568;SDS011;16501;51.462;14.346;2024-03-02T06:45:37;68.63;;;35.47;;
29568;SDS011;16501;51.462;14.346;2024-03-02T06:48:03;58.78;;;34.05;;
29568;SDS011;16501;51.462;14.346;2024-03-02T06:50:28;62.80;;;33.65;;
29568;SDS011;16501;51.462;14.346;2024-03-02T06:52:54;61.72;;;32.92;;
29568;SDS011;16501;51.462;14.346;2024-03-02T06:55:21;67.65;;;32.97;;
29568;SDS011;16501;51.462;14.346;2024-03-02T06:57:46;66.90;;;33.05;;
29568;SDS011;16501;51.462;14.346;2024-03-02T07:00:12;67.68;;;35.03;;
29568;SDS011;16501;51.462;14.346;2024-03-02T07:02:38;62.47;;;33.28;;
29568;SDS011;16501;51.462;14.346;2024-03-02T07:05:06;63.05;;;32.08;;
29568;SDS011;16501;51.462;14.346;2024-03-02T07:07:33;61.85;;;32.90;;
29568;SDS011;16501;51.462;14.346;2024-03-02T07:09:59;66.82;;;34.08;;
29568;SDS011;16501;51.462;14.346;2024-03-02T07:12:25;64.65;;;34.00;;
29568;SDS011;16501;51.462;14.346;2024-03-02T07:14:51;65.38;;;32.97;;
29568;SDS011;16501;51.462;14.346;2024-03-02T07:17:28;64.82;;;33.90;;
29568;SDS011;16501;51.462;14.346;2024-03-02T07:19:54;60.95;;;33.72;;
29568;SDS011;16501;51.462;14.346;2024-03-02T07:22:20;62.83;;;33.63;;
29568;SDS011;16501;51.462;14.346;2024-03-02T07:24:45;60.92;;;32.88;;
29568;SDS011;16501;51.462;14.346;2024-03-02T07:27:11;66.25;;;32.83;;
29568;SDS011;16501;51.462;14.346;2024-03-02T07:29:38;56.53;;;32.78;;
29568;SDS011;16501;51.462;14.346;2024-03-02T07:32:05;65.55;;;34.78;;
29568;SDS011;16501;51.462;14.346;2024-03-02T07:34:31;58.97;;;32.45;;
29568;SDS011;16501;51.462;14.346;2024-03-02T07:36:56;59.10;;;34.08;;
29568;SDS011;16501;51.462;14.346;2024-03-02T07:39:22;60.95;;;32.72;;
29568;SDS011;16501;51.462;14.346;2024-03-02T07:41:48;60.10;;;32.08;;
29568;SDS011;16501;51.462;14.346;2024-03-02T07:44:14;68.78;;;34.03;;
29568;SDS011;16501;51.462;14.346;2024-03-02T07:46:43;61.92;;;33.03;;
29568;SDS011;16501;51.462;14.346;2024-03-02T07:49:09;61.75;;;33.40;;
29568;SDS011;16501;51.462;14.346;2024-03-02T07:51:35;63.42;;;34.10;;
29568;SDS011;16501;51.462;14.346;2024-03-02T07:54:01;65.95;;;31.77;;
29568;SDS011;16501;51.462;14.346;2024-03-02T07:56:27;68.40;;;34.33;;
29568;SDS011;16501;51.462;14.346;2024-03-02T07:58:53;56.97;;;32.67;;
29568;SDS011;16501;51.462;14.346;2024-03-02T08:01:18;61.10;;;33.80;;
29568;SDS011;16501;51.462;14.346;2024-03-02T08:03:44;64.88;;;33.58;;
29568;SDS011;16501;51.462;14.346;2024-03-02T08:06:15;67.57;;;34.08;;
29568;SDS011;16501;51.462;14.346;2024-03-02T08:08:40;68.90;;;31.27;;
29568;SDS011;16501;51.462;14.346;2024-03-02T08:11:06;313.98;;;68.25;;
29568;SDS011;16501;51.462;14.346;2024-03-02T08:13:31;81.72;;;35.85;;
29568;SDS011;16501;51.462;14.346;2024-03-02T08:15:57;117.07;;;42.42;;
29568;SDS011;16501;51.462;14.346;2024-03-02T08:18:22;62.42;;;30.95;;
29568;SDS011;16501;51.462;14.346;2024-03-02T08:20:48;62.72;;;30.33;;
29568;SDS011;16501;51.462;14.346;2024-03-02T08:23:13;59.95;;;33.28;;
29568;SDS011;16501;51.462;14.346;2024-03-02T08:25:39;63.58;;;30.73;;
29568;SDS011;16501;51.462;14.346;2024-03-02T08:28:05;67.45;;;30.63;;
29568;SDS011;16501;51.462;14.346;2024-03-02T08:30:31;69.25;;;32.15;;
29568;SDS011;16501;51.462;14.346;2024-03-02T08:32:57;79.82;;;32.03;;
29568;SDS011;16501;51.462;14.346;2024-03-02T08:35:23;63.08;;;31.05;;
29568;SDS011;16501;51.462;14.346;2024-03-02T08:37:49;60.58;;;31.08;;
29568;SDS011;16501;51.462;14.346;2024-03-02T08:40:16;53.20;;;30.30;;
29568;SDS011;16501;51.462;14.346;2024-03-02T08:42:41;56.15;;;30.58;;
29568;SDS011;16501;51.462;14.346;2024-03-02T08:45:07;55.05;;;29.90;;
29568;SDS011;16501;51.462;14.346;2024-03-02T08:47:33;51.10;;;28.23;;
29568;SDS011;16501;51.462;14.346;2024-03-02T08:49:59;54.17;;;28.58;;
29568;SDS011;16501;51.462;14.346;2024-03-02T08:52:25;106.68;;;36.05;;
29568;SDS011;16501;51.462;14.346;2024-03-02T08:54:50;53.70;;;26.15;;
29568;SDS011;16501;51.462;14.346;2024-03-02T08:57:18;47.22;;;25.58;;
29568;SDS011;16501;51.462;14.346;2024-03-02T08:59:43;47.38;;;27.00;;
29568;SDS011;16501;51.462;14.346;2024-03-02T09:02:09;41.88;;;24.08;;
29568;SDS011;16501;51.462;14.346;2024-03-02T09:04:35;45.67;;;26.13;;
29568;SDS011;16501;51.462;14.346;2024-03-02T09:07:03;49.70;;;23.80;;
29568;SDS011;16501;51.462;14.346;2024-03-02T09:09:28;45.58;;;23.02;;
29568;SDS011;16501;51.462;14.346;2024-03-02T09:11:54;64.65;;;26.60;;
29568;SDS011;16501;51.462;14.346;2024-03-02T09:14:20;42.00;;;22.40;;
29568;SDS011;16501;51.462;14.346;2024-03-02T09:16:46;46.53;;;22.58;;
29568;SDS011;16501;51.462;14.346;2024-03-02T09:19:11;52.92;;;23.95;;
29568;SDS011;16501;51.462;14.346;2024-03-02T09:21:36;44.75;;;24.00;;
29568;SDS011;16501;51.462;14.346;2024-03-02T09:24:02;46.25;;;23.63;;
29568;SDS011;16501;51.462;14.346;2024-03-02T09:26:28;45.20;;;22.38;;
29568;SDS011;16501;51.462;14.346;2024-03-02T09:28:54;45.45;;;22.50;;
29568;SDS011;16501;51.462;14.346;2024-03-02T09:31:19;44.70;;;23.40;;
29568;SDS011;16501;51.462;14.346;2024-03-02T09:33:44;41.97;;;22.75;;
29568;SDS011;16501;51.462;14.346;2024-03-02T09:36:16;39.08;;;22.30;;
29568;SDS011;16501;51.462;14.346;2024-03-02T09:38:43;37.05;;;20.40;;
29568;SDS011;16501;51.462;14.346;2024-03-02T09:41:09;34.85;;;21.05;;
29568;SDS011;16501;51.462;14.346;2024-03-02T09:43:34;39.72;;;20.65;;
29568;SDS011;16501;51.462;14.346;2024-03-02T09:46:00;43.92;;;23.67;;
29568;SDS011;16501;51.462;14.346;2024-03-02T09:48:25;37.65;;;20.92;;
29568;SDS011;16501;51.462;14.346;2024-03-02T09:50:51;39.47;;;22.98;;
29568;SDS011;16501;51.462;14.346;2024-03-02T09:53:16;36.88;;;21.75;;
29568;SDS011;16501;51.462;14.346;2024-03-02T09:55:46;38.92;;;21.30;;
29568;SDS011;16501;51.462;14.346;2024-03-02T09:58:12;39.10;;;23.63;;
29568;SDS011;16501;51.462;14.346;2024-03-02T10:00:38;39.85;;;21.27;;
29568;SDS011;16501;51.462;14.346;2024-03-02T10:03:03;39.38;;;22.50;;
29568;SDS011;16501;51.462;14.346;2024-03-02T10:05:30;34.30;;;20.10;;
29568;SDS011;16501;51.462;14.346;2024-03-02T10:08:02;40.53;;;22.55;;
29568;SDS011;16501;51.462;14.346;2024-03-02T10:10:40;33.63;;;20.38;;
29568;SDS011;16501;51.462;14.346;2024-03-02T10:13:08;38.17;;;22.52;;
29568;SDS011;16501;51.462;14.346;2024-03-02T10:15:37;34.22;;;21.35;;
29568;SDS011;16501;51.462;14.346;2024-03-02T10:18:07;35.15;;;20.08;;
29568;SDS011;16501;51.462;14.346;2024-03-02T10:20:34;34.75;;;19.50;;
29568;SDS011;16501;51.462;14.346;2024-03-02T10:23:10;36.50;;;19.55;;
29568;SDS011;16501;51.462;14.346;2024-03-02T10:25:41;36.75;;;21.20;;
29568;SDS011;16501;51.462;14.346;2024-03-02T10:28:07;36.15;;;18.67;;
29568;SDS011;16501;51.462;14.346;2024-03-02T10:30:33;35.22;;;20.23;;
29568;SDS011;16501;51.462;14.346;2024-03-02T10:33:00;32.38;;;16.92;;
29568;SDS011;16501;51.462;14.346;2024-03-02T10:35:29;30.88;;;17.00;;
29568;SDS011;16501;51.462;14.346;2024-03-02T10:37:57;35.10;;;18.52;;
29568;SDS011;16501;51.462;14.346;2024-03-02T10:40:24;28.48;;;17.60;;
29568;SDS011;16501;51.462;14.346;2024-03-02T10:42:50;30.48;;;18.65;;
29568;SDS011;16501;51.462;14.346;2024-03-02T10:45:19;24.65;;;15.48;;
29568;SDS011;16501;51.462;14.346;2024-03-02T10:47:47;30.45;;;15.60;;
29568;SDS011;16501;51.462;14.346;2024-03-02T10:50:13;30.02;;;16.77;;
29568;SDS011;16501;51.462;14.346;2024-03-02T10:52:38;28.20;;;17.60;;
29568;SDS011;16501;51.462;14.346;2024-03-02T10:55:04;37.63;;;16.30;;
29568;SDS011;16501;51.462;14.346;2024-03-02T10:57:40;27.20;;;15.98;;
29568;SDS011;16501;51.462;14.346;2024-03-02T11:00:15;26.17;;;15.13;;
29568;SDS011;16501;51.462;14.346;2024-03-02T11:02:49;24.27;;;14.35;;
29568;SDS011;16501;51.462;14.346;2024-03-02T11:05:19;33.78;;;18.75;;
29568;SDS011;16501;51.462;14.346;2024-03-02T11:07:53;24.20;;;14.82;;
29568;SDS011;16501;51.462;14.346;2024-03-02T11:10:24;25.80;;;14.88;;
29568;SDS011;16501;51.462;14.346;2024-03-02T11:12:55;23.23;;;14.63;;
29568;SDS011;16501;51.462;14.346;2024-03-02T11:15:26;24.83;;;15.45;;
29568;SDS011;16501;51.462;14.346;2024-03-02T11:17:54;21.40;;;14.10;;
29568;SDS011;16501;51.462;14.346;2024-03-02T11:20:20;20.30;;;13.82;;
29568;SDS011;16501;51.462;14.346;2024-03-02T11:22:46;23.10;;;14.40;;
29568;SDS011;16501;51.462;14.346;2024-03-02T11:25:25;23.05;;;13.73;;
29568;SDS011;16501;51.462;14.346;2024-03-02T11:32:59;19.98;;;13.38;;
29568;SDS011;16501;51.462;14.346;2024-03-02T11:35:34;20.27;;;13.05;;
29568;SDS011;16501;51.462;14.346;2024-03-02T11:38:01;18.83;;;11.88;;
29568;SDS011;16501;51.462;14.346;2024-03-02T11:40:28;20.15;;;12.95;;
29568;SDS011;16501;51.462;14.346;2024-03-02T11:43:01;18.60;;;13.35;;
29568;SDS011;16501;51.462;14.346;2024-03-02T11:45:26;21.45;;;12.93;;
29568;SDS011;16501;51.462;14.346;2024-03-02T11:47:56;19.83;;;11.90;;
29568;SDS011;16501;51.462;14.346;2024-03-02T11:55:34;20.27;;;11.13;;
29568;SDS011;16501;51.462;14.346;2024-03-02T11:58:19;17.92;;;13.10;;
29568;SDS011;16501;51.462;14.346;2024-03-02T12:00:46;19.15;;;11.88;;
29568;SDS011;16501;51.462;14.346;2024-03-02T12:03:12;20.38;;;11.90;;
29568;SDS011;16501;51.462;14.346;2024-03-02T12:05:39;20.67;;;11.95;;
29568;SDS011;16501;51.462;14.346;2024-03-02T12:08:05;19.13;;;12.30;;
29568;SDS011;16501;51.462;14.346;2024-03-02T12:10:32;23.00;;;13.40;;
29568;SDS011;16501;51.462;14.346;2024-03-02T12:12:59;18.05;;;11.88;;
29568;SDS011;16501;51.462;14.346;2024-03-02T12:15:29;22.33;;;12.45;;
29568;SDS011;16501;51.462;14.346;2024-03-02T12:17:56;16.65;;;11.13;;
29568;SDS011;16501;51.462;14.346;2024-03-02T12:20:23;18.98;;;11.05;;
29568;SDS011;16501;51.462;14.346;2024-03-02T12:22:50;21.08;;;11.23;;
29568;SDS011;16501;51.462;14.346;2024-03-02T12:25:20;20.77;;;11.07;;
29568;SDS011;16501;51.462;14.346;2024-03-02T12:27:46;22.48;;;11.07;;
29568;SDS011;16501;51.462;14.346;2024-03-02T12:30:14;19.42;;;10.70;;
29568;SDS011;16501;51.462;14.346;2024-03-02T12:32:41;19.02;;;10.32;;
29568;SDS011;16501;51.462;14.346;2024-03-02T12:35:10;16.23;;;9.98;;
29568;SDS011;16501;51.462;14.346;2024-03-02T12:37:46;20.35;;;11.88;;
29568;SDS011;16501;51.462;14.346;2024-03-02T12:40:12;16.10;;;10.20;;
29568;SDS011;16501;51.462;14.346;2024-03-02T12:42:39;17.67;;;11.15;;
29568;SDS011;16501;51.462;14.346;2024-03-02T12:45:06;18.83;;;10.98;;
29568;SDS011;16501;51.462;14.346;2024-03-02T12:47:35;24.08;;;11.13;;
29568;SDS011;16501;51.462;14.346;2024-03-02T12:50:01;21.60;;;11.38;;
29568;SDS011;16501;51.462;14.346;2024-03-02T12:52:28;17.52;;;9.80;;
29568;SDS011;16501;51.462;14.346;2024-03-02T12:54:55;21.38;;;10.70;;
29568;SDS011;16501;51.462;14.346;2024-03-02T12:57:27;15.93;;;10.40;;
29568;SDS011;16501;51.462;14.346;2024-03-02T12:59:57;19.65;;;11.20;;
29568;SDS011;16501;51.462;14.346;2024-03-02T13:02:30;17.35;;;9.88;;
29568;SDS011;16501;51.462;14.346;2024-03-02T13:04:57;15.40;;;9.70;;
29568;SDS011;16501;51.462;14.346;2024-03-02T13:07:24;19.75;;;9.90;;
29568;SDS011;16501;51.462;14.346;2024-03-02T13:09:50;18.17;;;9.38;;
29568;SDS011;16501;51.462;14.346;2024-03-02T13:12:16;17.67;;;9.10;;
29568;SDS011;16501;51.462;14.346;2024-03-02T13:14:42;15.43;;;9.23;;
29568;SDS011;16501;51.462;14.346;2024-03-02T13:17:08;14.40;;;7.78;;
29568;SDS011;16501;51.462;14.346;2024-03-02T13:19:34;17.83;;;9.73;;
29568;SDS011;16501;51.462;14.346;2024-03-02T13:22:00;18.25;;;9.73;;
29568;SDS011;16501;51.462;14.346;2024-03-02T13:24:28;25.58;;;10.25;;
29568;SDS011;16501;51.462;14.346;2024-03-02T13:26:56;17.92;;;10.68;;
29568;SDS011;16501;51.462;14.346;2024-03-02T13:29:23;19.20;;;11.48;;
29568;SDS011;16501;51.462;14.346;2024-03-02T13:31:49;18.23;;;11.18;;
29568;SDS011;16501;51.462;14.346;2024-03-02T13:34:14;17.42;;;11.32;;
29568;SDS011;16501;51.462;14.346;2024-03-02T13:36:41;22.83;;;12.63;;
29568;SDS011;16501;51.462;14.346;2024-03-02T13:39:08;19.63;;;12.05;;
29568;SDS011;16501;51.462;14.346;2024-03-02T13:41:35;22.63;;;11.13;;
29568;SDS011;16501;51.462;14.346;2024-03-02T13:44:01;18.58;;;12.32;;
29568;SDS011;16501;51.462;14.346;2024-03-02T13:46:27;19.55;;;11.80;;
29568;SDS011;16501;51.462;14.346;2024-03-02T13:48:53;23.02;;;12.13;;
29568;SDS011;16501;51.462;14.346;2024-03-02T13:51:20;21.50;;;12.25;;
29568;SDS011;16501;51.462;14.346;2024-03-02T13:53:45;20.38;;;11.60;;
29568;SDS011;16501;51.462;14.346;2024-03-02T13:56:11;21.88;;;12.48;;
29568;SDS011;16501;51.462;14.346;2024-03-02T13:58:36;18.48;;;12.00;;
29568;SDS011;16501;51.462;14.346;2024-03-02T14:01:02;21.77;;;11.50;;
29568;SDS011;16501;51.462;14.346;2024-03-02T14:03:29;19.52;;;11.43;;
29568;SDS011;16501;51.462;14.346;2024-03-02T14:05:54;19.88;;;11.13;;
29568;SDS011;16501;51.462;14.346;2024-03-02T14:08:20;21.63;;;12.10;;
29568;SDS011;16501;51.462;14.346;2024-03-02T14:10:46;20.65;;;11.48;;
29568;SDS011;16501;51.462;14.346;2024-03-02T14:13:13;19.77;;;11.50;;
29568;SDS011;16501;51.462;14.346;2024-03-02T14:15:38;21.02;;;11.45;;
29568;SDS011;16501;51.462;14.346;2024-03-02T14:18:05;18.63;;;11.73;;
29568;SDS011;16501;51.462;14.346;2024-03-02T14:20:31;20.58;;;11.88;;